Time;durP1;ratioP1;P1;durP2;ratioP2;P2;SDS_P1;SDS_P2;PMS_P1;PMS_P2;Temp;Humidity;BMP_temperature;BMP_pressure;BME280_temperature;BME280_humidity;BME280_pressure;Samples;Min_cycle;Max_cycle;Signal;HPM_P1;HPM_P2
2022/07/16 00:01:53;;;;;;;4.78;2.55;;;18.00;89.00;;;;;;5040812;28;20445;-79
2022/07/16 00:04:18;;;;;;;6.40;2.53;;;18.00;90.10;;;;;;5036257;28;20029;-81
2022/07/16 00:06:44;;;;;;;8.75;3.00;;;18.00;90.10;;;;;;5018310;28;20034;-79
2022/07/16 00:09:11;;;;;;;7.00;2.75;;;18.00;90.40;;;;;;5036237;28;20412;-79
2022/07/16 00:11:37;;;;;;;5.85;2.50;;;17.90;90.70;;;;;;5036310;28;20048;-78
2022/07/16 00:14:02;;;;;;;5.35;2.95;;;17.90;91.00;;;;;;5043496;28;20026;-77
2022/07/16 00:16:28;;;;;;;10.32;2.95;;;18.00;91.20;;;;;;5028286;28;20033;-79
2022/07/16 00:21:39;;;;;;;8.43;3.20;;;17.90;92.30;;;;;;5046378;28;20148;-78
2022/07/16 00:24:07;;;;;;;6.75;2.80;;;17.90;92.80;;;;;;5030039;28;20100;-79
2022/07/16 00:26:33;;;;;;;9.73;3.13;;;17.90;93.50;;;;;;5046359;28;20087;-79
2022/07/16 00:28:59;;;;;;;8.70;2.83;;;17.90;94.90;;;;;;5047990;28;20060;-79
2022/07/16 00:31:25;;;;;;;5.80;2.70;;;17.90;96.10;;;;;;5046438;28;20497;-78
2022/07/16 00:33:51;;;;;;;8.20;2.90;;;17.90;97.90;;;;;;5047475;28;20073;-79
2022/07/16 00:36:17;;;;;;;5.97;2.88;;;17.80;99.10;;;;;;5031522;28;20033;-79
2022/07/16 00:38:42;;;;;;;5.25;2.67;;;17.80;99.80;;;;;;5032664;28;20014;-79
2022/07/16 00:41:16;;;;;;;6.78;2.90;;;17.80;99.90;;;;;;5046177;28;20033;-79
2022/07/16 00:43:50;;;;;;;6.18;3.28;;;17.80;99.90;;;;;;5047108;28;20037;-80
2022/07/16 00:46:17;;;;;;;5.30;3.43;;;17.80;99.90;;;;;;5030144;28;20060;-80
2022/07/16 00:48:43;;;;;;;6.60;3.40;;;17.80;99.90;;;;;;5046784;28;20018;-79
2022/07/16 00:51:10;;;;;;;6.38;2.90;;;17.80;99.90;;;;;;5049193;28;20037;-79
2022/07/16 00:53:36;;;;;;;9.23;3.22;;;17.80;99.90;;;;;;5029279;28;20385;-79
2022/07/16 00:56:06;;;;;;;5.55;2.97;;;17.80;99.90;;;;;;5048184;28;20025;-79
2022/07/16 00:58:32;;;;;;;4.35;2.88;;;17.80;99.90;;;;;;5029553;28;20033;-80
2022/07/16 01:00:59;;;;;;;7.32;2.72;;;17.80;99.90;;;;;;5046864;28;20163;-78
2022/07/16 01:03:25;;;;;;;7.30;3.05;;;17.80;99.90;;;;;;5027907;28;20040;-80
2022/07/16 01:05:51;;;;;;;6.57;3.50;;;17.70;99.90;;;;;;5029137;28;20034;-78
2022/07/16 01:08:16;;;;;;;5.88;2.92;;;17.70;99.90;;;;;;5048031;28;20447;-78
2022/07/16 01:10:43;;;;;;;5.78;2.72;;;17.70;99.90;;;;;;5047571;28;20033;-79
2022/07/16 01:13:10;;;;;;;4.60;3.15;;;17.70;99.90;;;;;;5029524;28;20030;-79
2022/07/16 01:15:36;;;;;;;7.82;2.80;;;17.60;99.90;;;;;;5031060;28;20025;-78
2022/07/16 01:18:02;;;;;;;4.05;2.60;;;17.60;99.90;;;;;;5046529;28;20489;-80
2022/07/16 01:20:28;;;;;;;11.40;3.65;;;17.50;99.90;;;;;;5048899;28;20091;-79
2022/07/16 01:22:54;;;;;;;6.28;2.95;;;17.40;99.90;;;;;;5047277;28;20037;-79
2022/07/16 01:25:20;;;;;;;4.30;2.70;;;17.40;99.90;;;;;;5047286;28;20040;-78
2022/07/16 01:27:46;;;;;;;5.65;3.00;;;17.30;99.90;;;;;;5028620;28;20040;-79
2022/07/16 01:30:12;;;;;;;7.47;2.60;;;17.20;99.90;;;;;;5046551;28;20032;-80
2022/07/16 01:32:38;;;;;;;4.78;2.90;;;17.20;99.90;;;;;;5045245;28;20037;-79
2022/07/16 01:35:05;;;;;;;5.47;3.00;;;17.20;99.90;;;;;;5045561;28;20018;-78
2022/07/16 01:37:31;;;;;;;5.30;2.90;;;17.20;99.90;;;;;;5046334;28;20021;-80
2022/07/16 01:39:57;;;;;;;6.07;2.90;;;17.30;99.90;;;;;;5048290;28;20163;-78
2022/07/16 01:42:23;;;;;;;6.30;3.15;;;17.30;99.90;;;;;;5046332;28;20036;-78
2022/07/16 01:44:49;;;;;;;4.63;2.55;;;17.20;99.90;;;;;;5047353;28;20084;-80
2022/07/16 01:47:15;;;;;;;6.20;3.42;;;17.20;99.90;;;;;;5048402;28;20101;-79
2022/07/16 01:49:41;;;;;;;12.60;2.88;;;17.10;99.90;;;;;;5046034;28;20026;-79
2022/07/16 01:52:08;;;;;;;6.43;3.22;;;17.10;99.90;;;;;;5050768;28;20040;-80
2022/07/16 01:54:36;;;;;;;7.18;2.90;;;17.10;99.90;;;;;;5049348;28;20025;-79
2022/07/16 01:57:02;;;;;;;4.35;2.60;;;17.00;99.90;;;;;;5048813;28;20101;-79
2022/07/16 01:59:29;;;;;;;6.68;3.22;;;17.00;99.90;;;;;;5044389;28;20037;-77
2022/07/16 02:01:55;;;;;;;8.32;3.05;;;16.90;99.90;;;;;;5039613;28;20045;-79
2022/07/16 02:04:20;;;;;;;8.32;3.35;;;17.00;99.90;;;;;;5041599;28;20026;-78
2022/07/16 02:06:46;;;;;;;7.55;3.30;;;17.00;99.90;;;;;;5044502;28;20110;-79
2022/07/16 02:09:12;;;;;;;7.18;3.33;;;17.00;99.90;;;;;;5043806;28;20151;-79
2022/07/16 02:11:38;;;;;;;6.00;3.25;;;17.00;99.90;;;;;;5041238;28;20033;-81
2022/07/16 02:14:04;;;;;;;5.85;3.22;;;17.00;99.90;;;;;;5023413;28;20393;-81
2022/07/16 02:16:29;;;;;;;5.82;3.30;;;17.00;99.90;;;;;;5040157;28;20489;-79
2022/07/16 02:18:55;;;;;;;12.30;3.95;;;17.00;99.90;;;;;;5040046;28;20392;-79
2022/07/16 02:21:21;;;;;;;8.25;3.60;;;17.00;99.90;;;;;;5046638;28;20101;-78
2022/07/16 02:23:47;;;;;;;6.40;3.63;;;17.00;99.90;;;;;;5043668;28;20033;-81
2022/07/16 02:26:13;;;;;;;9.95;3.30;;;17.00;99.90;;;;;;5044709;28;20029;-80
2022/07/16 02:28:38;;;;;;;6.10;3.30;;;17.00;99.90;;;;;;5029542;28;20450;-79
2022/07/16 02:31:04;;;;;;;8.85;3.40;;;16.90;99.90;;;;;;5044650;28;20025;-79
2022/07/16 02:33:30;;;;;;;12.95;3.92;;;16.90;99.90;;;;;;5039873;28;20445;-79
2022/07/16 02:35:56;;;;;;;11.02;3.85;;;16.80;99.90;;;;;;5027781;28;20041;-78
2022/07/16 02:38:21;;;;;;;5.45;3.60;;;16.80;99.90;;;;;;5045837;28;20085;-79
2022/07/16 02:40:47;;;;;;;9.13;3.67;;;16.70;99.90;;;;;;5024733;28;20033;-79
2022/07/16 02:43:13;;;;;;;9.15;3.97;;;16.60;99.90;;;;;;5044636;28;20025;-79
2022/07/16 02:45:41;;;;;;;5.55;3.65;;;16.60;99.90;;;;;;5055262;28;20022;-79
2022/07/16 02:48:08;;;;;;;5.85;2.92;;;16.60;99.90;;;;;;5058166;28;20089;-81
2022/07/16 02:50:35;;;;;;;7.32;3.38;;;16.60;99.90;;;;;;5058810;28;20075;-81
2022/07/16 02:53:01;;;;;;;4.40;3.35;;;16.50;99.90;;;;;;5058319;28;20017;-81
2022/07/16 02:55:27;;;;;;;4.45;3.10;;;16.60;99.90;;;;;;5035665;28;20025;-79
2022/07/16 02:57:52;;;;;;;8.00;3.40;;;16.60;99.90;;;;;;5047793;28;20030;-78
2022/07/16 03:00:19;;;;;;;5.57;3.17;;;16.60;99.90;;;;;;5047657;28;20025;-80
2022/07/16 03:02:45;;;;;;;8.15;3.28;;;16.70;99.90;;;;;;5053816;28;20081;-79
2022/07/16 03:05:11;;;;;;;9.23;3.70;;;16.70;99.90;;;;;;5039999;28;20021;-80
2022/07/16 03:07:37;;;;;;;8.60;3.47;;;16.60;99.90;;;;;;5056934;28;20048;-80
2022/07/16 03:10:05;;;;;;;6.45;3.83;;;16.60;99.90;;;;;;5034336;28;20029;-79
2022/07/16 03:12:31;;;;;;;7.97;3.65;;;16.50;99.90;;;;;;5066901;22;20099;-81
2022/07/16 03:14:58;;;;;;;5.18;3.78;;;16.50;99.90;;;;;;5033800;28;20029;-85
2022/07/16 03:17:23;;;;;;;6.80;3.47;;;16.50;99.90;;;;;;5035054;28;20025;-81
2022/07/16 03:19:49;;;;;;;6.30;3.67;;;16.40;99.90;;;;;;5052823;28;20085;-83
2022/07/16 03:22:16;;;;;;;6.88;3.97;;;16.40;99.90;;;;;;5052329;28;20022;-84
2022/07/16 03:24:42;;;;;;;6.13;3.65;;;16.40;99.90;;;;;;5046077;28;20060;-83
2022/07/16 03:27:08;;;;;;;6.80;3.95;;;16.40;99.90;;;;;;5033200;28;20009;-81
2022/07/16 03:29:34;;;;;;;8.85;3.78;;;16.40;99.90;;;;;;5057977;28;20077;-80
2022/07/16 03:32:00;;;;;;;5.78;3.90;;;16.40;99.90;;;;;;5057282;28;20025;-80
2022/07/16 03:34:25;;;;;;;9.57;3.70;;;16.40;99.90;;;;;;5056330;28;20029;-81
2022/07/16 03:36:51;;;;;;;8.77;3.38;;;16.50;99.90;;;;;;5055467;28;20035;-81
2022/07/16 03:39:17;;;;;;;6.95;3.95;;;16.50;99.90;;;;;;5055689;28;20092;-78
2022/07/16 03:41:43;;;;;;;8.07;3.72;;;16.70;99.90;;;;;;5056046;28;20469;-78
2022/07/16 03:44:11;;;;;;;6.68;3.45;;;16.70;99.90;;;;;;5055898;28;20025;-79
2022/07/16 03:46:37;;;;;;;12.30;3.67;;;16.80;99.90;;;;;;5056019;28;20033;-79
2022/07/16 03:49:03;;;;;;;6.30;4.00;;;16.80;99.90;;;;;;5055628;28;20029;-79
2022/07/16 03:51:29;;;;;;;14.23;3.97;;;16.90;99.90;;;;;;5054360;28;20044;-81
2022/07/16 03:53:55;;;;;;;10.93;5.35;;;16.90;99.90;;;;;;5053664;28;20034;-80
2022/07/16 03:56:21;;;;;;;8.93;3.85;;;16.90;99.90;;;;;;5039614;28;20021;-80
2022/07/16 03:58:47;;;;;;;6.68;3.78;;;17.00;99.90;;;;;;5055991;28;20026;-80
2022/07/16 04:01:13;;;;;;;6.00;3.72;;;17.00;99.90;;;;;;5054438;28;20048;-80
2022/07/16 04:03:39;;;;;;;6.82;4.22;;;17.00;99.90;;;;;;5054576;28;20034;-80
2022/07/16 04:06:06;;;;;;;7.35;3.90;;;17.00;99.90;;;;;;5019462;28;20056;-82
2022/07/16 04:08:32;;;;;;;8.65;3.53;;;17.00;99.90;;;;;;5048313;28;20042;-84
2022/07/16 04:10:58;;;;;;;8.65;4.13;;;17.00;99.90;;;;;;5051810;28;20018;-82
2022/07/16 04:13:24;;;;;;;8.82;4.03;;;16.90;99.90;;;;;;5054222;28;20023;-81
2022/07/16 04:15:50;;;;;;;9.70;4.35;;;17.00;99.90;;;;;;5053813;28;20014;-81
2022/07/16 04:18:15;;;;;;;8.57;4.00;;;17.10;99.90;;;;;;5054828;28;20044;-81
2022/07/16 04:20:41;;;;;;;10.80;3.85;;;17.10;99.90;;;;;;5057091;28;20076;-79
2022/07/16 04:23:07;;;;;;;6.65;4.05;;;17.10;99.90;;;;;;5057708;28;20089;-79
2022/07/16 04:25:33;;;;;;;7.50;3.88;;;17.20;99.90;;;;;;5060255;28;20018;-79
2022/07/16 04:27:59;;;;;;;7.88;4.13;;;17.30;99.90;;;;;;5052486;28;20042;-79
2022/07/16 04:30:25;;;;;;;6.00;3.78;;;17.30;99.90;;;;;;5036754;28;20025;-82
2022/07/16 04:32:51;;;;;;;12.30;4.00;;;17.40;99.90;;;;;;5053835;28;20057;-82
2022/07/16 04:35:17;;;;;;;13.70;4.65;;;17.40;99.90;;;;;;5035841;28;20105;-82
2022/07/16 04:37:43;;;;;;;11.68;3.92;;;17.50;99.90;;;;;;5054111;28;20060;-82
2022/07/16 04:40:11;;;;;;;7.85;3.97;;;17.60;99.90;;;;;;5056357;28;20025;-81
2022/07/16 04:42:41;;;;;;;7.35;4.10;;;17.60;99.90;;;;;;5057923;28;20025;-81
2022/07/16 04:45:09;;;;;;;7.90;3.60;;;17.80;99.90;;;;;;5040809;28;20033;-80
2022/07/16 04:47:35;;;;;;;6.03;3.53;;;17.80;99.90;;;;;;5058902;28;20029;-82
2022/07/16 04:50:01;;;;;;;7.75;3.53;;;18.00;99.90;;;;;;5059132;28;20037;-81
2022/07/16 04:52:27;;;;;;;7.85;3.92;;;18.20;99.90;;;;;;5058986;28;20024;-79
2022/07/16 04:54:53;;;;;;;7.30;3.67;;;18.30;99.90;;;;;;5060349;28;20030;-79
2022/07/16 04:57:19;;;;;;;6.03;4.10;;;18.50;99.90;;;;;;5042617;28;20040;-81
2022/07/16 04:59:45;;;;;;;9.82;4.25;;;18.50;99.90;;;;;;5042510;28;20029;-79
2022/07/16 05:04:55;;;;;;;7.18;4.80;;;18.70;99.90;;;;;;5059099;28;20029;-79
2022/07/16 05:07:21;;;;;;;7.63;4.22;;;18.80;99.90;;;;;;5060240;28;20017;-78
2022/07/16 05:09:47;;;;;;;8.07;3.80;;;18.90;99.90;;;;;;5060453;28;20037;-80
2022/07/16 05:12:12;;;;;;;10.80;4.30;;;19.00;99.90;;;;;;5060345;28;20021;-79
2022/07/16 05:14:38;;;;;;;9.98;3.70;;;19.20;99.90;;;;;;5060289;28;20045;-78
2022/07/16 05:17:04;;;;;;;9.23;3.88;;;19.50;99.90;;;;;;5060423;28;20029;-79
2022/07/16 05:19:30;;;;;;;12.05;3.75;;;19.60;99.90;;;;;;5043157;28;20022;-81
2022/07/16 05:21:56;;;;;;;6.28;3.47;;;19.80;99.90;;;;;;5058245;28;20029;-81
2022/07/16 05:24:22;;;;;;;6.57;3.80;;;19.90;99.90;;;;;;5038457;28;20093;-82
2022/07/16 05:26:48;;;;;;;12.35;4.00;;;20.00;99.90;;;;;;5036451;28;20093;-83
2022/07/16 05:29:13;;;;;;;12.68;3.78;;;20.10;99.90;;;;;;5053743;28;20029;-81
2022/07/16 05:31:39;;;;;;;9.45;3.67;;;20.10;99.90;;;;;;5054496;28;20032;-82
2022/07/16 05:34:05;;;;;;;6.50;3.97;;;20.10;99.90;;;;;;5054085;28;20028;-82
2022/07/16 05:36:31;;;;;;;11.23;4.40;;;20.20;99.90;;;;;;5035603;28;20022;-82
2022/07/16 05:38:57;;;;;;;11.02;4.40;;;20.30;99.90;;;;;;5042741;28;20030;-83
2022/07/16 05:41:23;;;;;;;9.52;4.28;;;20.80;99.90;;;;;;4999647;28;20099;-83
2022/07/16 05:43:49;;;;;;;8.07;4.47;;;21.30;99.90;;;;;;5025069;28;20014;-81
2022/07/16 05:46:15;;;;;;;7.10;3.72;;;21.40;99.90;;;;;;5044622;28;20026;-83
2022/07/16 05:48:40;;;;;;;5.65;3.67;;;21.20;99.80;;;;;;5048644;28;20089;-83
2022/07/16 05:51:06;;;;;;;11.73;4.35;;;21.10;99.90;;;;;;5053285;28;20029;-81
2022/07/16 05:53:32;;;;;;;7.30;3.00;;;21.00;99.90;;;;;;5027247;28;20042;-83
2022/07/16 05:55:58;;;;;;;6.00;3.40;;;20.90;97.20;;;;;;5056900;28;20073;-84
2022/07/16 05:58:24;;;;;;;4.32;2.88;;;20.70;97.50;;;;;;5058167;28;20047;-83
2022/07/16 06:00:50;;;;;;;9.00;3.25;;;20.60;96.30;;;;;;5040759;28;20013;-87
2022/07/16 06:03:16;;;;;;;6.78;3.10;;;20.70;96.10;;;;;;5055652;28;20412;-86
2022/07/16 06:05:41;;;;;;;6.25;3.00;;;20.80;96.80;;;;;;5039185;28;20041;-86
2022/07/16 06:08:07;;;;;;;6.40;3.00;;;21.00;96.70;;;;;;5054534;28;20036;-87
2022/07/16 06:10:33;;;;;;;4.88;3.00;;;21.00;96.70;;;;;;5058950;28;20029;-86
2022/07/16 06:12:59;;;;;;;8.32;2.60;;;21.10;94.80;;;;;;5057055;28;20121;-86
2022/07/16 06:15:25;;;;;;;8.30;2.85;;;21.00;94.00;;;;;;5053829;28;20043;-87
2022/07/16 06:17:51;;;;;;;7.05;3.10;;;21.10;93.60;;;;;;5035009;28;20091;-84
2022/07/16 06:20:16;;;;;;;8.35;2.85;;;21.10;94.90;;;;;;5039829;28;20069;-84
2022/07/16 06:22:42;;;;;;;6.25;2.80;;;21.10;94.80;;;;;;5042291;28;20025;-84
2022/07/16 06:25:08;;;;;;;6.28;3.25;;;21.10;95.00;;;;;;5059379;28;20009;-84
2022/07/16 06:27:34;;;;;;;9.38;2.80;;;21.20;94.80;;;;;;5059333;28;20052;-85
2022/07/16 06:30:05;;;;;;;13.27;3.28;;;21.20;94.70;;;;;;5058811;28;20025;-86
2022/07/16 06:32:31;;;;;;;6.30;2.67;;;21.30;94.20;;;;;;5056324;28;20026;-86
2022/07/16 06:34:57;;;;;;;5.00;2.60;;;21.50;93.80;;;;;;5038927;28;20084;-85
2022/07/16 06:37:23;;;;;;;9.63;3.10;;;21.60;93.40;;;;;;5036970;28;20090;-87
2022/07/16 06:39:49;;;;;;;9.32;3.17;;;21.80;93.10;;;;;;5054577;28;20025;-83
2022/07/16 06:42:15;;;;;;;8.05;2.92;;;21.90;92.80;;;;;;5053761;28;20021;-86
2022/07/16 06:44:41;;;;;;;7.10;3.05;;;22.00;92.40;;;;;;5053518;28;20075;-86
2022/07/16 06:47:07;;;;;;;7.65;3.20;;;22.00;92.20;;;;;;5039022;28;20046;-83
2022/07/16 06:49:33;;;;;;;5.82;2.92;;;22.00;92.00;;;;;;5059305;28;20030;-84
2022/07/16 06:51:59;;;;;;;11.55;2.97;;;22.30;91.70;;;;;;5058867;28;20024;-84
2022/07/16 06:54:25;;;;;;;7.22;2.80;;;22.40;91.10;;;;;;5058014;28;20064;-83
2022/07/16 06:56:51;;;;;;;4.93;2.13;;;22.40;91.00;;;;;;5053968;28;20029;-87
2022/07/16 06:59:17;;;;;;;7.00;2.42;;;22.10;89.30;;;;;;5055950;28;20060;-84
2022/07/16 07:01:43;;;;;;;6.18;2.50;;;22.00;88.70;;;;;;5056125;28;20042;-87
2022/07/16 07:04:08;;;;;;;4.82;2.40;;;21.90;88.00;;;;;;5056021;28;20049;-88
2022/07/16 07:06:34;;;;;;;5.90;2.65;;;22.00;87.80;;;;;;5055464;28;20034;-85
2022/07/16 07:09:00;;;;;;;5.10;2.42;;;22.00;88.10;;;;;;5037158;28;20041;-86
2022/07/16 07:11:26;;;;;;;8.88;2.67;;;22.00;89.70;;;;;;5052523;28;20025;-83
2022/07/16 07:13:52;;;;;;;6.57;2.45;;;22.10;89.60;;;;;;5054198;28;20040;-85
2022/07/16 07:16:18;;;;;;;6.15;2.22;;;22.20;88.90;;;;;;5055301;28;20093;-87
2022/07/16 07:18:44;;;;;;;5.68;2.65;;;22.30;87.50;;;;;;5039093;28;20025;-87
2022/07/16 07:21:10;;;;;;;6.78;2.65;;;22.30;87.60;;;;;;5057689;28;20039;-88
2022/07/16 07:23:36;;;;;;;7.57;2.47;;;22.30;88.30;;;;;;5057741;28;20009;-85
2022/07/16 07:26:02;;;;;;;7.50;2.35;;;22.40;88.60;;;;;;5057975;28;20034;-83
2022/07/16 07:28:28;;;;;;;4.82;2.25;;;22.30;86.40;;;;;;5057846;28;20052;-83
2022/07/16 07:30:56;;;;;;;6.78;2.10;;;22.40;86.20;;;;;;5040851;28;20052;-85
2022/07/16 07:33:23;;;;;;;7.55;2.58;;;22.50;85.50;;;;;;5057579;28;20040;-85
2022/07/16 07:35:49;;;;;;;4.45;2.00;;;22.60;85.60;;;;;;5055646;28;20068;-85
2022/07/16 07:38:16;;;;;;;4.50;2.17;;;22.70;86.00;;;;;;5036136;28;20074;-86
2022/07/16 07:40:41;;;;;;;5.03;2.25;;;22.40;84.90;;;;;;5054726;28;20057;-86
2022/07/16 07:43:07;;;;;;;9.43;2.50;;;22.30;85.30;;;;;;5053848;28;20060;-86
2022/07/16 07:45:33;;;;;;;3.85;2.35;;;22.40;86.00;;;;;;5053385;28;20025;-85
2022/07/16 07:47:59;;;;;;;5.00;2.58;;;22.40;85.40;;;;;;5053761;28;20051;-86
2022/07/16 07:50:25;;;;;;;2.45;2.00;;;22.50;85.80;;;;;;5054199;28;20128;-87
2022/07/16 07:52:51;;;;;;;5.05;2.30;;;22.20;85.60;;;;;;5036968;28;20265;-87
2022/07/16 07:55:17;;;;;;;5.15;2.30;;;22.20;86.20;;;;;;5054638;28;20038;-85
2022/07/16 07:57:42;;;;;;;3.10;2.33;;;22.40;86.60;;;;;;5054920;28;20025;-85
2022/07/16 08:00:09;;;;;;;3.72;2.45;;;22.40;86.00;;;;;;5053555;28;20037;-86
2022/07/16 08:02:43;;;;;;;5.15;2.30;;;22.60;85.90;;;;;;5052594;28;20025;-86
2022/07/16 08:05:09;;;;;;;6.07;2.65;;;22.70;86.00;;;;;;5051906;28;20086;-85
2022/07/16 08:07:35;;;;;;;6.57;2.42;;;22.50;85.50;;;;;;5033836;28;20088;-88
2022/07/16 08:10:01;;;;;;;6.28;2.67;;;22.30;85.90;;;;;;5015534;28;20029;-87
2022/07/16 08:12:28;;;;;;;6.35;2.83;;;22.40;86.20;;;;;;5031726;28;20087;-86
2022/07/16 08:14:54;;;;;;;3.47;2.65;;;22.60;86.20;;;;;;5031895;28;20064;-86
2022/07/16 08:17:20;;;;;;;4.60;2.65;;;22.90;85.60;;;;;;5032803;28;20025;-87
2022/07/16 08:19:48;;;;;;;6.45;2.50;;;22.90;85.40;;;;;;5033060;28;20030;-86
2022/07/16 08:22:14;;;;;;;6.70;2.50;;;23.00;85.10;;;;;;5051443;28;20030;-87
2022/07/16 08:27:24;;;;;;;10.30;3.20;;;22.90;85.00;;;;;;5050744;28;20373;-85
2022/07/16 08:29:50;;;;;;;5.32;2.83;;;23.00;85.20;;;;;;5051980;28;20112;-87
2022/07/16 08:32:16;;;;;;;4.20;2.65;;;23.10;85.70;;;;;;5055677;28;20064;-85
2022/07/16 08:34:42;;;;;;;4.35;2.83;;;23.10;84.90;;;;;;5056900;28;20025;-85
2022/07/16 08:37:10;;;;;;;3.80;2.80;;;23.20;84.70;;;;;;5039762;28;20029;-87
2022/07/16 08:39:43;;;;;;;5.28;2.63;;;23.30;84.90;;;;;;5039203;28;20034;-87
2022/07/16 08:42:10;;;;;;;7.88;2.80;;;23.40;84.00;;;;;;5055034;28;20037;-88
2022/07/16 08:44:40;;;;;;;5.15;2.55;;;23.50;84.50;;;;;;5055345;28;20021;-86
2022/07/16 08:47:10;;;;;;;6.82;2.70;;;23.40;83.90;;;;;;5038831;28;20068;-87
2022/07/16 08:49:37;;;;;;;5.10;2.40;;;23.40;85.30;;;;;;5055817;28;20029;-86
2022/07/16 08:52:06;;;;;;;10.05;2.72;;;23.60;84.00;;;;;;5038309;28;20028;-85
2022/07/16 08:54:33;;;;;;;5.28;2.85;;;23.60;83.70;;;;;;5055054;28;20033;-84
2022/07/16 08:56:59;;;;;;;5.35;2.90;;;23.70;83.40;;;;;;5056014;28;20065;-86
2022/07/16 08:59:29;;;;;;;8.40;5.65;;;23.50;83.40;;;;;;5055738;28;20040;-85
2022/07/16 09:01:55;;;;;;;4.80;2.63;;;23.60;83.70;;;;;;5038311;28;20040;-85
2022/07/16 09:04:21;;;;;;;6.70;3.38;;;23.90;83.60;;;;;;5055851;28;20048;-84
2022/07/16 09:06:47;;;;;;;5.80;2.50;;;24.00;82.80;;;;;;5055167;28;20030;-87
2022/07/16 09:09:13;;;;;;;5.53;2.70;;;24.10;82.60;;;;;;5052463;28;20026;-85
2022/07/16 09:11:40;;;;;;;6.18;2.72;;;24.00;82.60;;;;;;5024624;28;20022;-87
2022/07/16 09:14:08;;;;;;;5.93;2.47;;;24.10;83.60;;;;;;5060613;22;20079;-82
2022/07/16 09:16:43;;;;;;;8.32;2.85;;;24.00;82.10;;;;;;5037367;28;20030;-80
2022/07/16 09:19:09;;;;;;;;;;;23.80;82.60;;;;;;5036774;28;20034;-82
2022/07/16 09:21:35;;;;;;;3.22;2.40;;;23.70;82.40;;;;;;5035974;28;19905;-84
2022/07/16 09:24:01;;;;;;;4.13;2.35;;;23.90;82.70;;;;;;5035693;28;20026;-83
2022/07/16 09:26:28;;;;;;;4.55;2.75;;;24.10;82.20;;;;;;5028296;28;20396;-83
2022/07/16 09:28:54;;;;;;;4.53;2.42;;;24.20;81.90;;;;;;5023872;28;20128;-83
2022/07/16 09:31:41;;;;;;;7.45;3.53;;;24.40;81.80;;;;;;5006296;28;20058;-83
2022/07/16 09:34:10;;;;;;;4.00;2.45;;;24.70;81.40;;;;;;5011905;28;20101;-82
2022/07/16 09:36:37;;;;;;;13.88;3.13;;;25.00;81.10;;;;;;5024007;28;20018;-83
2022/07/16 09:39:07;;;;;;;9.63;2.70;;;25.50;80.70;;;;;;5022654;28;20034;-84
2022/07/16 09:41:42;;;;;;;4.38;2.30;;;25.70;79.80;;;;;;5021912;28;20037;-85
2022/07/16 09:44:14;;;;;;;;;;;26.00;79.20;;;;;;5005023;28;20105;-86
2022/07/16 09:46:55;;;;;;;5.50;2.55;;;26.20;78.00;;;;;;5004747;28;19916;-84
2022/07/16 09:49:21;;;;;;;3.53;2.30;;;26.40;79.00;;;;;;5004947;28;20038;-84
2022/07/16 09:51:46;;;;;;;4.75;2.20;;;26.90;77.70;;;;;;5022343;28;20026;-84
2022/07/16 09:54:28;;;;;;;6.20;2.47;;;27.60;76.20;;;;;;5028860;28;20036;-82
2022/07/16 09:57:20;;;;;;;4.72;2.17;;;28.30;75.20;;;;;;5014088;28;20026;-83
2022/07/16 09:59:47;;;;;;;4.18;2.28;;;29.20;72.90;;;;;;5024519;28;20034;-83
2022/07/16 10:02:13;;;;;;;5.28;2.30;;;29.70;70.80;;;;;;5030488;28;20501;-83
2022/07/16 10:04:40;;;;;;;3.40;2.08;;;29.70;71.10;;;;;;5028119;28;20040;-84
2022/07/16 10:07:06;;;;;;;5.13;2.42;;;31.30;68.30;;;;;;5029266;28;20057;-84
2022/07/16 10:09:32;;;;;;;4.15;2.30;;;31.90;65.90;;;;;;5026881;28;20042;-86
2022/07/16 10:12:08;;;;;;;3.78;2.00;;;32.30;63.00;;;;;;5007644;28;20397;-84
2022/07/16 10:14:48;;;;;;;4.45;1.90;;;32.60;62.00;;;;;;5027855;28;20147;-84
2022/07/16 10:17:16;;;;;;;8.98;2.10;;;33.20;60.50;;;;;;5026158;28;20034;-83
2022/07/16 10:19:43;;;;;;;8.05;1.85;;;34.10;59.30;;;;;;5023826;28;20085;-85
2022/07/16 10:22:29;;;;;;;4.30;1.95;;;34.30;58.40;;;;;;5021513;28;20116;-85
2022/07/16 10:24:56;;;;;;;4.63;2.33;;;35.30;57.30;;;;;;5022564;28;20381;-84
2022/07/16 10:27:34;;;;;;;5.22;2.13;;;36.30;55.70;;;;;;5028512;28;20034;-83
2022/07/16 10:30:16;;;;;;;3.00;2.10;;;37.40;54.30;;;;;;5006566;28;20030;-84
2022/07/16 10:33:03;;;;;;;4.90;2.00;;;36.40;53.90;;;;;;5007046;28;20144;-83
2022/07/16 10:35:38;;;;;;;3.70;1.95;;;36.10;54.40;;;;;;5008034;28;20034;-84
2022/07/16 10:38:04;;;;;;;4.22;2.75;;;35.80;54.40;;;;;;5029974;28;20040;-85
2022/07/16 10:40:30;;;;;;;6.28;2.20;;;36.60;53.60;;;;;;5025285;28;20026;-83
2022/07/16 10:43:18;;;;;;;3.40;1.98;;;37.00;52.90;;;;;;5029587;28;20118;-84
2022/07/16 10:45:59;;;;;;;2.83;2.15;;;37.70;52.20;;;;;;5032149;28;20109;-83
2022/07/16 10:48:30;;;;;;;3.05;2.50;;;37.10;52.00;;;;;;5031120;28;20037;-82
2022/07/16 10:51:11;;;;;;;9.82;2.45;;;37.50;51.60;;;;;;5031919;28;20034;-84
2022/07/16 10:54:01;;;;;;;3.22;2.03;;;38.40;50.00;;;;;;5031197;28;20026;-83
2022/07/16 10:56:43;;;;;;;5.18;2.20;;;37.60;50.30;;;;;;5029253;28;20034;-85
2022/07/16 10:59:11;;;;;;;5.22;2.30;;;35.90;51.10;;;;;;5031369;28;20060;-84
2022/07/16 11:01:38;;;;;;;4.18;2.45;;;35.60;52.10;;;;;;5030620;28;20030;-84
2022/07/16 11:04:05;;;;;;;3.67;2.20;;;36.20;52.00;;;;;;5008921;28;20041;-86
2022/07/16 11:06:31;;;;;;;3.00;2.30;;;35.20;52.00;;;;;;5023666;28;20049;-86
2022/07/16 11:08:59;;;;;;;3.67;2.15;;;33.20;54.50;;;;;;5007703;28;20034;-84
2022/07/16 11:11:38;;;;;;;3.33;2.10;;;32.60;55.40;;;;;;5025540;28;20022;-85
2022/07/16 11:14:06;;;;;;;3.90;2.33;;;32.90;55.20;;;;;;5023111;28;20105;-85
2022/07/16 11:16:32;;;;;;;4.97;2.28;;;33.90;54.60;;;;;;5009666;28;20037;-84
2022/07/16 11:19:00;;;;;;;5.63;2.65;;;34.50;53.90;;;;;;5023302;28;20097;-83
2022/07/16 11:21:26;;;;;;;5.03;2.30;;;33.40;54.70;;;;;;5023127;28;20031;-85
2022/07/16 11:23:54;;;;;;;6.40;2.63;;;32.30;55.80;;;;;;5021919;28;20113;-85
2022/07/16 11:26:21;;;;;;;4.90;2.00;;;32.60;56.40;;;;;;5004664;28;20030;-84
2022/07/16 11:28:59;;;;;;;3.55;2.42;;;34.30;54.80;;;;;;5020708;28;20041;-85
2022/07/16 11:31:31;;;;;;;4.18;2.58;;;36.40;52.80;;;;;;5022460;28;20024;-84
2022/07/16 11:34:00;;;;;;;5.05;2.58;;;36.00;52.60;;;;;;5025087;28;20076;-83
2022/07/16 11:36:27;;;;;;;7.22;2.63;;;35.30;53.50;;;;;;5009786;28;20073;-85
2022/07/16 11:39:02;;;;;;;7.60;2.50;;;34.10;54.00;;;;;;5003364;28;20034;-83
2022/07/16 11:41:29;;;;;;;4.28;2.42;;;34.50;55.00;;;;;;5024917;28;20088;-82
2022/07/16 11:43:55;;;;;;;7.50;2.53;;;33.30;55.60;;;;;;5015999;28;20048;-82
2022/07/16 11:46:24;;;;;;;4.45;2.42;;;34.20;55.60;;;;;;5023122;28;20036;-83
2022/07/16 11:48:50;;;;;;;4.10;2.25;;;36.00;53.30;;;;;;5002288;28;20064;-84
2022/07/16 11:51:16;;;;;;;4.45;2.35;;;37.40;51.80;;;;;;5003035;28;20474;-83
2022/07/16 11:53:49;;;;;;;5.55;2.40;;;38.00;51.30;;;;;;5021971;28;20098;-82
2022/07/16 11:56:14;;;;;;;4.45;2.05;;;39.60;50.10;;;;;;5024066;28;20363;-83
2022/07/16 11:58:40;;;;;;;4.50;2.13;;;40.70;49.70;;;;;;5021218;28;20092;-82
2022/07/16 12:01:06;;;;;;;3.67;2.47;;;41.60;47.60;;;;;;5024349;28;20065;-83
2022/07/16 12:03:32;;;;;;;9.23;2.65;;;41.40;47.40;;;;;;5026188;28;20090;-83
2022/07/16 12:06:06;;;;;;;3.13;2.25;;;41.50;46.90;;;;;;5007049;28;20026;-84
2022/07/16 12:08:33;;;;;;;4.40;2.13;;;41.30;47.20;;;;;;5006413;28;20049;-82
2022/07/16 12:11:05;;;;;;;6.57;2.40;;;40.30;47.00;;;;;;5026290;28;20026;-83
2022/07/16 12:13:32;;;;;;;4.10;2.60;;;38.60;48.10;;;;;;5005608;28;20030;-82
2022/07/16 12:16:00;;;;;;;4.55;2.55;;;36.10;50.00;;;;;;5003452;28;20022;-84
2022/07/16 12:18:27;;;;;;;12.05;2.75;;;34.00;52.00;;;;;;5003541;28;20448;-83
2022/07/16 12:20:53;;;;;;;3.97;2.40;;;33.20;53.00;;;;;;5021752;28;20026;-83
2022/07/16 12:23:39;;;;;;;4.55;2.40;;;32.40;54.10;;;;;;5007427;28;20026;-84
2022/07/16 12:26:06;;;;;;;5.60;3.10;;;32.10;54.70;;;;;;5025315;28;20440;-82
2022/07/16 12:28:32;;;;;;;6.82;2.92;;;32.90;54.30;;;;;;5025235;28;20045;-82
2022/07/16 12:31:05;;;;;;;3.95;2.20;;;34.20;53.10;;;;;;4994102;28;20061;-82
2022/07/16 12:33:31;;;;;;;6.22;2.47;;;36.10;50.90;;;;;;5026297;28;20026;-84
2022/07/16 12:36:06;;;;;;;6.80;2.70;;;36.30;50.40;;;;;;5026248;28;20029;-82
2022/07/16 12:38:49;;;;;;;3.05;2.40;;;37.30;49.20;;;;;;4987446;28;20030;-82
2022/07/16 12:41:26;;;;;;;3.55;2.25;;;38.00;47.90;;;;;;5009174;28;20045;-83
2022/07/16 12:44:02;;;;;;;6.03;2.22;;;39.20;47.00;;;;;;5020254;28;20084;-83
2022/07/16 12:46:30;;;;;;;4.25;2.22;;;37.10;48.10;;;;;;5008241;28;20038;-82
2022/07/16 12:48:59;;;;;;;5.10;2.47;;;36.90;48.00;;;;;;5025726;28;20049;-83
2022/07/16 12:51:27;;;;;;;5.82;2.47;;;35.50;49.20;;;;;;5027136;28;20038;-82
2022/07/16 12:53:54;;;;;;;6.68;2.50;;;35.90;49.10;;;;;;5031003;28;20030;-81
2022/07/16 12:59:05;;;;;;;4.82;2.47;;;37.60;48.10;;;;;;5039989;28;20036;-82